Meath Environmental Platform

Observations for Trim Market St

Time AQI Temp °C Hum % Pres Pa CO μg/m³ H₂S μg/m³ NO μg/m³ NO₂ μg/m³ O₃ μg/m³ SO₂ μg/m³ PM1 μg/m³ PM2.5 μg/m³ PM10 μg/m³
Tuesday 11 August 2026
22:12 3 23.1 48 62,092 0 2.19 1.32 25.85 52.85 0 2.85 5.67 6.77
22:11 3 23.2 47 62,118 0 2.24 1.31 32.86 45.65 0 2.85 5.67 6.77
22:10 3 23.2 48 62,268 0 1.74 1.3 38.31 50.07 0 2.85 5.67 8.29
22:09 3 23.2 48 62,357 0 0 1.3 16.46 57.09 0 4.28 6.7 8.29
22:07 3 23.3 48 62,245 0 3.22 1.27 33.96 53.49 0 2.85 5.15 6.77
22:05 3 23.3 47 62,397 0 0.89 1.27 21.05 57.1 0 3.56 5.16 7.53
22:04 3 23.4 47 62,375 0 1.89 1.25 26.29 52.89 0 2.14 5.16 6
22:03 3 23.4 47 62,498 0 2.63 1.25 25.02 55.52 0 2.85 6.2 9.05
22:02 3 23.4 47 62,509 0 2.16 1.27 29.65 52.41 0 3.56 6.2 8.29
21:58 3 23.5 47 62,750 0 3.4 1.25 20.9 56.09 0 2.85 5.7 7.53
21:57 3 23.5 47 62,723 0 5.2 1.22 36.64 49.71 0 2.14 5.18 6
21:56 3 23.6 47 62,875 0 5.2 1.21 30.65 53.01 0 2.85 5.7 6.76
21:55 3 23.6 47 62,928 0 4.75 1.23 36.11 49.54 0 2.85 6.23 7.53
21:54 3 23.6 47 63,068 0 4.06 1.24 32.33 51.75 0 3.56 6.23 8.29
21:51 3 23.7 46 63,120 0 5.04 1.24 38.51 48.14 0 3.56 5.73 6.76
21:50 3 23.7 46 63,215 0 4.43 1.24 28.09 53.51 0 3.56 6.77 8.29
21:47 3 23.9 46 63,268 0 6.15 1.21 28.71 54.88 0 2.85 4.7 6.76
21:40 3 24.1 46 63,829 0 7.39 1.19 40.98 49.05 0 2.85 5.77 7.53
21:36 3 24.2 45 63,964 0 6.14 1.19 25.92 56.79 0 3.56 6.3 8.3
21:35 3 24.3 45 63,966 0 7.83 1.17 34.84 50.71 0 2.85 5.26 7.53